Time;durP1;ratioP1;P1;durP2;ratioP2;P2;SDS_P1;SDS_P2;PMS_P1;PMS_P2;Temp;Humidity;BMP_temperature;BMP_pressure;BME280_temperature;BME280_humidity;BME280_pressure;Samples;Min_cycle;Max_cycle;Signal;HPM_P1;HPM_P2
2023/10/06 00:04:43;;;;;;;17.80;7.65;;;;;;;8.66;nan;102280.84;10334713;28;20048;-83
2023/10/06 00:09:43;;;;;;;20.52;8.65;;;;;;;8.68;nan;102274.84;10335158;28;20038;-83
2023/10/06 00:14:48;;;;;;;18.40;9.05;;;;;;;8.76;nan;102274.63;10332898;28;20045;-83
2023/10/06 00:19:51;;;;;;;18.48;8.38;;;;;;;8.75;nan;102280.63;10317613;28;20038;-82
2023/10/06 00:24:55;;;;;;;17.55;8.57;;;;;;;8.75;nan;102290.19;10328693;28;20414;-83
2023/10/06 00:29:55;;;;;;;22.25;7.82;;;;;;;8.76;nan;102281.56;10331934;28;20440;-83
2023/10/06 00:40:27;;;;;;;13.00;8.37;;;;;;;8.70;nan;102274.16;10313995;28;20038;-84
2023/10/06 00:45:30;;;;;;;19.88;9.57;;;;;;;8.70;nan;102265.41;10333232;28;20045;-83
2023/10/06 00:50:32;;;;;;;;;;;;;;;8.64;nan;102269.38;10332335;28;20049;-83
2023/10/06 00:55:33;;;;;;;17.15;8.77;;;;;;;8.66;nan;102266.88;10331787;28;20301;-82
2023/10/06 01:00:37;;;;;;;14.90;7.55;;;;;;;8.74;nan;102263.16;10335896;28;20048;-84
2023/10/06 01:05:38;;;;;;;18.67;8.82;;;;;;;8.68;nan;102257.47;10337529;28;20041;-84
2023/10/06 01:10:43;;;;;;;22.87;10.37;;;;;;;8.69;nan;102246.22;10317957;28;20034;-81
2023/10/06 01:15:49;;;;;;;19.25;8.90;;;;;;;8.69;nan;102243.63;10313828;28;20327;-82
2023/10/06 01:20:50;;;;;;;21.42;9.63;;;;;;;8.63;nan;102240.53;10332363;28;20046;-81
2023/10/06 01:25:55;;;;;;;17.33;8.73;;;;;;;8.64;nan;102234.50;10330638;28;20062;-82
2023/10/06 01:30:57;;;;;;;21.38;9.20;;;;;;;8.56;nan;102226.09;10345842;28;20042;-82
2023/10/06 01:35:59;;;;;;;;;;;;;;;8.58;nan;102223.59;10316410;28;20045;-82
2023/10/06 01:41:02;;;;;;;14.80;9.02;;;;;;;8.56;nan;102222.56;10326649;28;19992;-82
2023/10/06 01:46:02;;;;;;;15.15;8.80;;;;;;;8.51;nan;102228.34;10313190;28;20045;-81
2023/10/06 01:51:08;;;;;;;15.27;9.75;;;;;;;8.42;nan;102224.09;10312303;28;20049;-81
2023/10/06 01:56:09;;;;;;;18.75;9.07;;;;;;;8.51;nan;102212.69;10327950;28;20050;-81
2023/10/06 02:01:10;;;;;;;15.18;8.75;;;;;;;8.50;nan;102207.38;10316532;28;20068;-82
2023/10/06 02:06:16;;;;;;;19.77;9.60;;;;;;;8.57;nan;102195.69;10329372;28;20056;-82
2023/10/06 02:11:17;;;;;;;23.80;9.25;;;;;;;8.48;nan;102198.47;10313415;28;20038;-83
2023/10/06 02:16:22;;;;;;;18.20;9.40;;;;;;;8.47;nan;102209.72;10314160;28;20049;-82
2023/10/06 02:21:30;;;;;;;15.65;9.30;;;;;;;8.47;nan;102202.78;10332882;28;20038;-81
2023/10/06 02:26:37;;;;;;;21.58;11.65;;;;;;;8.47;nan;102196.66;10345254;28;20061;-82
2023/10/06 02:31:41;;;;;;;20.40;11.63;;;;;;;8.56;nan;102194.78;10313578;28;20046;-82
2023/10/06 02:36:41;;;;;;;22.00;10.85;;;;;;;8.65;nan;102200.72;10302224;28;20490;-82
2023/10/06 02:41:42;;;;;;;22.25;9.63;;;;;;;8.65;nan;102205.03;10314894;28;20046;-82
2023/10/06 02:46:44;;;;;;;21.65;9.95;;;;;;;8.56;nan;102201.69;10315647;28;20398;-81
2023/10/06 02:51:47;;;;;;;17.25;11.32;;;;;;;8.61;nan;102201.28;10285841;28;22259;-82
2023/10/06 02:56:50;;;;;;;13.88;8.55;;;;;;;8.55;nan;102199.88;10296212;28;20053;-82
2023/10/06 03:02:00;;;;;;;20.27;11.05;;;;;;;8.54;nan;102198.06;10313822;28;20053;-82
2023/10/06 03:07:01;;;;;;;18.33;9.75;;;;;;;8.51;nan;102204.84;10314391;28;20183;-82
2023/10/06 03:17:25;;;;;;;;;;;;;;;8.39;nan;102196.03;10314790;28;20061;-82
2023/10/06 03:22:27;;;;;;;23.73;10.52;;;;;;;8.27;nan;102193.41;10314442;28;20013;-82
2023/10/06 03:27:28;;;;;;;19.40;10.30;;;;;;;8.26;nan;102198.50;10314619;28;20057;-85
2023/10/06 03:32:39;;;;;;;17.83;9.30;;;;;;;8.37;nan;102192.41;10334755;28;20050;-85
2023/10/06 03:37:51;;;;;;;24.65;10.38;;;;;;;8.34;nan;102198.31;10322255;28;20046;-87
2023/10/06 03:42:55;;;;;;;;;;;;;;;8.31;nan;102211.13;10334191;28;20050;-83
2023/10/06 03:48:08;;;;;;;25.05;11.73;;;;;;;8.30;nan;102219.72;10329286;28;19930;-83
2023/10/06 03:53:10;;;;;;;16.40;9.45;;;;;;;8.25;nan;102204.50;10348627;28;20498;-81
2023/10/06 03:58:14;;;;;;;16.85;9.73;;;;;;;8.33;nan;102196.50;10377886;28;20041;-84
2023/10/06 04:03:17;;;;;;;25.50;13.70;;;;;;;8.35;nan;102194.91;10377561;28;20488;-84
2023/10/06 04:08:21;;;;;;;16.35;10.02;;;;;;;8.28;nan;102181.25;10364756;28;20442;-81
2023/10/06 04:13:23;;;;;;;19.67;9.55;;;;;;;8.29;nan;102178.78;10375760;28;20037;-83
2023/10/06 04:18:24;;;;;;;18.07;9.83;;;;;;;8.29;nan;102170.97;10363653;28;20045;-83
2023/10/06 04:23:24;;;;;;;17.25;9.70;;;;;;;8.26;nan;102167.19;10365313;28;20307;-85
2023/10/06 04:28:27;;;;;;;12.93;8.93;;;;;;;8.19;nan;102164.09;10367970;28;20129;-81
2023/10/06 04:33:28;;;;;;;16.13;10.15;;;;;;;8.23;nan;102147.00;10360277;28;20038;-80
2023/10/06 04:38:29;;;;;;;17.88;10.77;;;;;;;8.11;nan;102157.38;10360954;28;20035;-83
2023/10/06 04:43:29;;;;;;;14.20;8.90;;;;;;;8.06;nan;102164.84;10354860;28;20486;-81
2023/10/06 04:48:30;;;;;;;21.63;11.00;;;;;;;8.04;nan;102165.50;10344746;28;20440;-81
2023/10/06 04:53:35;;;;;;;15.73;9.85;;;;;;;8.03;nan;102177.66;10356286;28;20068;-79
2023/10/06 04:58:38;;;;;;;19.08;8.98;;;;;;;8.01;nan;102163.59;10364418;28;20125;-80
2023/10/06 05:03:45;;;;;;;14.52;9.02;;;;;;;7.96;nan;102157.09;10371205;28;20045;-81
2023/10/06 05:08:49;;;;;;;25.65;10.73;;;;;;;7.93;nan;102160.34;10347690;28;20034;-80
2023/10/06 05:13:52;;;;;;;18.27;9.15;;;;;;;7.98;nan;102154.59;10372186;28;20048;-81
2023/10/06 05:18:53;;;;;;;15.80;9.75;;;;;;;7.99;nan;102148.59;10371635;28;20120;-80
2023/10/06 05:23:55;;;;;;;16.23;9.02;;;;;;;8.04;nan;102149.84;10370877;28;20042;-82
2023/10/06 05:28:56;;;;;;;22.40;9.43;;;;;;;8.09;nan;102143.31;10366934;28;20502;-81
2023/10/06 05:33:57;;;;;;;19.15;9.57;;;;;;;8.04;nan;102131.59;10345334;28;20132;-78
2023/10/06 05:38:59;;;;;;;15.70;9.13;;;;;;;8.10;nan;102136.41;10322141;28;20047;-80
2023/10/06 05:43:59;;;;;;;;;;;;;;;8.21;nan;102141.66;10360896;28;20122;-81
2023/10/06 05:49:03;;;;;;;18.85;9.50;;;;;;;8.30;nan;102144.09;10358244;28;19932;-80
2023/10/06 05:54:12;;;;;;;22.63;10.73;;;;;;;8.35;nan;102141.81;10361653;28;20092;-80
2023/10/06 05:59:18;;;;;;;19.80;10.45;;;;;;;8.42;nan;102141.50;10360510;28;20036;-80
2023/10/06 06:04:19;;;;;;;22.15;10.98;;;;;;;8.52;nan;102141.44;10359618;28;20049;-80
2023/10/06 06:09:19;;;;;;;19.50;11.10;;;;;;;8.72;nan;102157.72;10359917;28;20038;-81
2023/10/06 06:14:21;;;;;;;25.27;9.85;;;;;;;8.91;nan;102157.41;10360687;28;20065;-81
2023/10/06 06:19:22;;;;;;;18.70;9.00;;;;;;;9.17;nan;102171.50;10360342;28;20500;-81
2023/10/06 06:24:23;;;;;;;19.75;9.85;;;;;;;9.36;nan;102162.41;10358205;28;20048;-80
2023/10/06 06:29:24;;;;;;;18.05;9.20;;;;;;;9.53;nan;102155.78;10357192;28;20126;-80
2023/10/06 06:34:24;;;;;;;18.25;8.05;;;;;;;9.73;nan;102175.53;10358547;28;20045;-83
2023/10/06 06:39:27;;;;;;;13.23;7.70;;;;;;;9.89;nan;102167.06;10356756;28;20527;-85
2023/10/06 06:44:29;;;;;;;14.55;7.32;;;;;;;10.01;nan;102161.81;10357303;28;20041;-84
2023/10/06 06:49:30;;;;;;;13.98;6.45;;;;;;;9.98;nan;102165.13;10360147;28;20068;-83
2023/10/06 06:54:36;;;;;;;11.18;6.43;;;;;;;10.05;nan;102162.94;10357299;28;20113;-81
2023/10/06 06:59:38;;;;;;;13.93;6.03;;;;;;;10.33;nan;102154.41;10373567;28;20045;-81
2023/10/06 07:04:39;;;;;;;;;;;;;;;10.44;nan;102150.84;10359277;28;20429;-81
2023/10/06 07:09:40;;;;;;;14.35;6.63;;;;;;;10.51;nan;102145.22;10392653;28;19933;-81
2023/10/06 07:14:40;;;;;;;10.80;5.75;;;;;;;10.86;nan;102138.84;10356964;28;20037;-81
2023/10/06 07:19:41;;;;;;;15.93;6.85;;;;;;;11.11;nan;102142.22;10356854;28;20050;-81
2023/10/06 07:24:41;;;;;;;17.65;6.00;;;;;;;11.49;nan;102140.25;10357819;28;20125;-81
2023/10/06 07:29:43;;;;;;;20.50;13.13;;;;;;;11.60;nan;102133.97;10341027;28;20030;-81
2023/10/06 07:34:44;;;;;;;11.48;5.20;;;;;;;11.73;nan;102123.47;10356377;28;20470;-82
2023/10/06 07:39:46;;;;;;;18.95;11.40;;;;;;;11.90;nan;102100.00;10358133;28;20034;-81
2023/10/06 07:44:47;;;;;;;18.08;6.00;;;;;;;12.01;nan;102080.59;10357845;28;20486;-81
2023/10/06 07:49:47;;;;;;;10.07;4.97;;;;;;;12.12;nan;102077.72;10374758;28;20060;-81
2023/10/06 07:54:49;;;;;;;14.85;6.68;;;;;;;12.33;nan;102073.78;10356666;28;20041;-82
2023/10/06 07:59:49;;;;;;;13.40;6.70;;;;;;;12.57;nan;102081.31;10341651;28;20034;-83
2023/10/06 08:04:51;;;;;;;12.15;5.78;;;;;;;12.71;nan;102082.13;10358952;28;20117;-82
2023/10/06 08:09:52;;;;;;;11.38;5.82;;;;;;;12.81;nan;102078.28;10390320;28;20407;-82
2023/10/06 08:14:54;;;;;;;14.05;5.68;;;;;;;13.11;nan;102094.00;10376469;28;20149;-83
2023/10/06 08:19:55;;;;;;;9.13;5.97;;;;;;;13.44;nan;102091.50;10362605;28;20449;-83
2023/10/06 08:24:56;;;;;;;12.73;5.95;;;;;;;13.79;nan;102099.53;10346754;28;20046;-83
2023/10/06 08:29:56;;;;;;;10.30;4.25;;;;;;;13.90;nan;102114.16;10364690;28;20117;-83
2023/10/06 08:34:57;;;;;;;13.45;4.85;;;;;;;14.05;nan;102119.34;10360324;28;20144;-85
2023/10/06 08:39:58;;;;;;;9.60;4.70;;;;;;;14.13;nan;102116.22;10345791;28;20042;-83
2023/10/06 08:44:58;;;;;;;12.40;5.82;;;;;;;14.35;nan;102127.06;10361524;28;20402;-84
2023/10/06 08:49:59;;;;;;;11.02;5.78;;;;;;;14.58;nan;102129.09;10363156;28;20121;-81
2023/10/06 08:54:59;;;;;;;24.70;10.00;;;;;;;14.94;nan;102137.06;10362582;28;20130;-81
2023/10/06 09:00:00;;;;;;;13.23;8.15;;;;;;;15.04;nan;102127.88;10361441;28;20048;-88
2023/10/06 09:05:03;;;;;;;15.48;6.53;;;;;;;15.29;nan;102134.34;10345000;28;20030;-79
2023/10/06 09:10:17;;;;;;;17.30;5.70;;;;;;;15.77;nan;102139.28;10350954;28;20038;-81
2023/10/06 09:15:19;;;;;;;13.10;5.50;;;;;;;15.98;nan;102147.28;10362892;28;20039;-81
2023/10/06 09:20:38;;;;;;;11.80;4.72;;;;;;;16.15;nan;102126.94;10361438;28;20053;-81
2023/10/06 09:25:42;;;;;;;10.82;4.75;;;;;;;16.69;nan;102145.13;10322740;28;20042;-81
2023/10/06 09:31:03;;;;;;;18.67;11.20;;;;;;;17.17;nan;102149.81;10360473;28;20088;-81
2023/10/06 09:36:11;;;;;;;7.00;3.80;;;;;;;17.61;nan;102136.53;10374762;28;20389;-80
2023/10/06 09:41:13;;;;;;;21.55;6.30;;;;;;;17.63;nan;102141.00;10360088;28;20401;-81
2023/10/06 09:46:13;;;;;;;9.27;5.03;;;;;;;18.86;nan;102141.03;10361286;28;20061;-79
2023/10/06 09:51:14;;;;;;;12.73;3.90;;;;;;;20.71;nan;102163.41;10360121;28;20145;-79
2023/10/06 09:56:17;;;;;;;15.67;5.13;;;;;;;21.92;nan;102208.97;10360087;28;20062;-81
2023/10/06 10:01:20;;;;;;;11.77;3.88;;;;;;;22.84;nan;102219.69;10375621;28;20038;-82
2023/10/06 10:06:22;;;;;;;15.55;5.07;;;;;;;23.73;nan;102230.06;10358800;28;20064;-82
2023/10/06 10:11:29;;;;;;;10.63;4.13;;;;;;;23.53;nan;102235.13;10392683;28;20053;-82
2023/10/06 10:16:56;;;;;;;9.48;3.78;;;;;;;21.97;nan;102220.63;10389386;28;20038;-81
2023/10/06 10:21:58;;;;;;;10.73;3.92;;;;;;;23.25;nan;102212.41;10362517;28;20103;-82
2023/10/06 10:26:59;;;;;;;12.48;3.95;;;;;;;22.64;nan;102218.44;10343881;28;20068;-82
2023/10/06 10:32:03;;;;;;;20.93;13.43;;;;;;;21.81;nan;102191.84;10363340;28;20129;-83
2023/10/06 10:37:05;;;;;;;12.00;3.63;;;;;;;20.27;nan;102202.97;10313423;28;20030;-84
2023/10/06 10:42:06;;;;;;;8.85;4.40;;;;;;;18.90;nan;102177.41;10341930;28;20049;-82
2023/10/06 10:47:06;;;;;;;10.23;4.22;;;;;;;18.25;nan;102157.50;10341502;28;20497;-79
2023/10/06 10:52:08;;;;;;;10.52;3.45;;;;;;;18.22;nan;102145.88;10358474;28;20065;-86
2023/10/06 10:57:11;;;;;;;8.80;3.73;;;;;;;18.73;nan;102151.22;10359338;28;20136;-81
2023/10/06 11:02:14;;;;;;;8.45;4.10;;;;;;;18.74;nan;102150.38;10375397;28;20125;-81
2023/10/06 11:07:18;;;;;;;9.23;3.95;;;;;;;19.13;nan;102151.72;10359144;28;20088;-81
2023/10/06 11:12:21;;;;;;;9.73;3.65;;;;;;;21.24;nan;102164.75;10361291;28;20040;-81
2023/10/06 11:17:26;;;;;;;11.95;4.15;;;;;;;22.04;nan;102178.09;10360106;28;20064;-82
2023/10/06 11:22:28;;;;;;;7.88;3.47;;;;;;;22.64;nan;102179.31;10358503;28;20030;-82
2023/10/06 11:27:28;;;;;;;;;;;;;;;23.79;nan;102174.91;10358113;28;20510;-83
2023/10/06 11:32:28;;;;;;;7.13;3.13;;;;;;;23.76;nan;102187.34;10359246;28;19914;-81
2023/10/06 11:37:29;;;;;;;12.57;4.07;;;;;;;23.05;nan;102174.69;10375465;28;20292;-81
2023/10/06 11:42:30;;;;;;;12.60;3.80;;;;;;;22.71;nan;102170.56;10373519;28;20034;-83
2023/10/06 11:47:34;;;;;;;5.45;3.35;;;;;;;23.63;nan;102169.34;10327700;28;20033;-83
2023/10/06 11:52:34;;;;;;;9.32;2.85;;;;;;;23.92;nan;102171.50;10367087;28;20069;-81
2023/10/06 11:57:47;;;;;;;9.80;3.60;;;;;;;21.74;nan;102165.91;10365012;28;20080;-81
2023/10/06 12:02:53;;;;;;;12.25;4.13;;;;;;;21.09;nan;102154.66;10365174;28;20037;-82
2023/10/06 12:07:59;;;;;;;11.75;5.00;;;;;;;22.67;nan;102141.13;10365797;28;20072;-81
2023/10/06 12:13:00;;;;;;;6.00;3.30;;;;;;;24.25;nan;102142.53;10348626;28;20486;-80
2023/10/06 12:18:01;;;;;;;8.90;3.67;;;;;;;25.34;nan;102156.00;10396870;28;20121;-80
2023/10/06 12:23:01;;;;;;;10.87;3.37;;;;;;;24.99;nan;102136.97;10397080;28;20061;-80
2023/10/06 12:28:02;;;;;;;10.73;3.77;;;;;;;25.82;nan;102122.31;10363900;28;20117;-80
2023/10/06 12:33:03;;;;;;;10.33;3.83;;;;;;;24.42;nan;102115.94;10378780;28;20064;-80
2023/10/06 12:38:06;;;;;;;15.00;3.80;;;;;;;24.82;nan;102110.09;10361071;28;20076;-79
2023/10/06 12:43:07;;;;;;;6.88;3.60;;;;;;;25.22;nan;102105.03;10363903;28;20038;-78
2023/10/06 12:48:07;;;;;;;7.33;3.87;;;;;;;26.08;nan;102106.31;10381183;28;20120;-79
2023/10/06 12:53:09;;;;;;;12.40;2.73;;;;;;;25.87;nan;102131.25;10375825;28;20068;-79
2023/10/06 12:58:14;;;;;;;15.18;3.20;;;;;;;25.17;nan;102114.81;10370449;28;20549;-82
2023/10/06 13:03:15;;;;;;;10.70;3.83;;;;;;;24.14;nan;102121.91;10359552;28;20472;-80
2023/10/06 13:08:24;;;;;;;9.13;3.60;;;;;;;24.69;nan;102117.06;10365071;28;20045;-80
2023/10/06 13:13:25;;;;;;;9.98;3.55;;;;;;;25.35;nan;102128.31;10389948;28;20466;-80
2023/10/06 13:18:25;;;;;;;8.47;4.33;;;;;;;25.29;nan;102125.59;10345764;28;20113;-79
2023/10/06 13:23:27;;;;;;;10.53;4.20;;;;;;;23.97;nan;102110.97;10363887;28;20041;-81
2023/10/06 13:28:28;;;;;;;7.00;3.40;;;;;;;23.62;nan;102114.13;10361140;28;20069;-80
2023/10/06 13:33:29;;;;;;;10.77;5.20;;;;;;;23.72;nan;102109.81;10395789;28;20034;-82
2023/10/06 13:38:31;;;;;;;8.53;3.47;;;;;;;22.56;nan;102098.25;10394118;28;20135;-80
2023/10/06 13:43:31;;;;;;;8.20;3.30;;;;;;;22.34;nan;102095.16;10361624;28;20034;-80
2023/10/06 13:48:33;;;;;;;7.07;2.80;;;;;;;22.45;nan;102082.03;10358339;28;20412;-79
2023/10/06 13:53:33;;;;;;;6.30;3.83;;;;;;;23.12;nan;102084.00;10375928;28;20042;-80
2023/10/06 13:58:34;;;;;;;8.33;2.90;;;;;;;23.21;nan;102083.25;10340509;28;20125;-77
2023/10/06 14:03:34;;;;;;;16.70;3.60;;;;;;;24.29;nan;102083.72;10351471;28;20042;-76
2023/10/06 14:08:35;;;;;;;7.10;3.47;;;;;;;24.24;nan;102081.91;10360885;28;20409;-82
2023/10/06 14:13:39;;;;;;;8.23;3.35;;;;;;;24.31;nan;102073.94;10361586;28;20053;-82
2023/10/06 14:18:40;;;;;;;6.95;3.10;;;;;;;24.04;nan;102069.22;10354088;28;20482;-80
2023/10/06 14:23:46;;;;;;;10.97;3.60;;;;;;;24.31;nan;102059.69;10359846;28;20129;-78
2023/10/06 14:28:47;;;;;;;7.28;3.53;;;;;;;23.94;nan;102056.59;10360623;28;20038;-79
2023/10/06 14:33:57;;;;;;;8.15;3.35;;;;;;;23.61;nan;102048.19;10360488;28;20088;-81
2023/10/06 14:49:40;;;;;;;11.52;5.50;;;;;;;22.83;nan;102051.56;10362255;28;20486;-80
2023/10/06 14:54:41;;;;;;;9.85;4.00;;;;;;;22.20;nan;102040.69;10377451;28;20045;-82
2023/10/06 14:59:44;;;;;;;9.53;4.00;;;;;;;22.06;nan;102045.75;10357356;28;20117;-82
2023/10/06 15:04:47;;;;;;;10.15;3.08;;;;;;;21.68;nan;102042.38;10350090;28;20552;-84
2023/10/06 15:09:49;;;;;;;8.73;3.17;;;;;;;21.56;nan;102034.09;10341688;28;20543;-82
2023/10/06 15:14:49;;;;;;;;;;;;;;;20.53;nan;102025.56;10360307;28;20038;-82
2023/10/06 15:19:50;;;;;;;8.17;3.93;;;;;;;19.85;nan;102027.28;10360098;28;19922;-82
2023/10/06 15:24:51;;;;;;;10.07;4.33;;;;;;;19.56;nan;102018.50;10364900;28;20285;-82
2023/10/06 15:29:52;;;;;;;10.93;4.43;;;;;;;19.14;nan;102010.22;10372198;28;20046;-82
2023/10/06 15:34:53;;;;;;;15.50;4.55;;;;;;;18.77;nan;101998.44;10365085;28;20037;-82
2023/10/06 15:39:54;;;;;;;9.88;3.55;;;;;;;18.38;nan;101983.91;10339361;28;20153;-82
2023/10/06 15:44:57;;;;;;;5.70;2.60;;;;;;;18.11;nan;101987.44;10357066;28;20044;-82
2023/10/06 15:49:58;;;;;;;8.75;3.03;;;;;;;18.11;nan;101995.38;10380497;28;20049;-82
2023/10/06 15:54:59;;;;;;;9.05;3.55;;;;;;;17.93;nan;101987.69;10371586;28;20092;-82
2023/10/06 15:59:59;;;;;;;9.17;3.43;;;;;;;17.66;nan;101972.59;10365517;28;20045;-82
2023/10/06 16:05:00;;;;;;;11.02;3.15;;;;;;;17.31;nan;101967.81;10366497;28;20138;-83
2023/10/06 16:10:00;;;;;;;17.50;4.20;;;;;;;17.14;nan;101979.50;10348865;28;20088;-83
2023/10/06 16:15:01;;;;;;;8.95;2.67;;;;;;;16.89;nan;101965.28;10381356;28;20780;-83
2023/10/06 16:20:06;;;;;;;9.88;3.85;;;;;;;16.63;nan;101951.94;10381469;28;20034;-83
2023/10/06 16:25:08;;;;;;;16.13;4.18;;;;;;;16.32;nan;101958.63;10364102;28;20114;-83
2023/10/06 16:30:13;;;;;;;;;;;;;;;16.18;nan;101960.69;10366407;28;20046;-83
2023/10/06 16:35:13;;;;;;;9.02;3.35;;;;;;;15.91;nan;101961.31;10379059;28;19918;-83
2023/10/06 16:40:14;;;;;;;11.20;3.88;;;;;;;15.66;nan;101956.66;10364682;28;20061;-83
2023/10/06 16:45:14;;;;;;;8.05;3.55;;;;;;;15.54;nan;101965.84;10346808;28;20122;-82
2023/10/06 16:50:15;;;;;;;8.82;4.55;;;;;;;15.46;nan;101961.97;10360351;28;20042;-83
2023/10/06 16:55:16;;;;;;;7.93;3.80;;;;;;;15.24;nan;101953.06;10364420;28;20375;-83
2023/10/06 17:00:18;;;;;;;8.05;3.30;;;;;;;15.05;nan;101935.50;10346761;28;20046;-83
2023/10/06 17:05:21;;;;;;;9.23;3.05;;;;;;;14.92;nan;101938.41;10361815;28;20037;-82
2023/10/06 17:10:22;;;;;;;7.53;4.43;;;;;;;14.63;nan;101935.25;10364699;28;20041;-82
2023/10/06 17:15:26;;;;;;;9.30;3.58;;;;;;;14.48;nan;101923.16;10377293;28;20509;-83
2023/10/06 17:20:27;;;;;;;8.07;3.50;;;;;;;14.54;nan;101918.19;10362093;28;20034;-84
2023/10/06 17:25:28;;;;;;;12.18;3.65;;;;;;;14.45;nan;101915.09;10344745;28;20398;-83
2023/10/06 17:30:28;;;;;;;8.02;4.13;;;;;;;14.42;nan;101914.94;10344525;28;20501;-82
2023/10/06 17:35:29;;;;;;;9.23;4.03;;;;;;;14.42;nan;101927.19;10394472;28;20104;-82
2023/10/06 17:40:29;;;;;;;6.82;3.17;;;;;;;14.34;nan;101926.84;10382275;28;20148;-82
2023/10/06 17:45:36;;;;;;;10.35;3.45;;;;;;;14.10;nan;101923.06;10359088;28;20038;-82
2023/10/06 17:50:44;;;;;;;12.32;3.88;;;;;;;14.02;nan;101919.13;10310259;28;20125;-81
2023/10/06 17:55:50;;;;;;;11.98;4.30;;;;;;;13.86;nan;101909.56;10358698;28;20096;-81
2023/10/06 18:00:51;;;;;;;7.07;3.92;;;;;;;13.82;nan;101915.50;10345104;28;20041;-80
2023/10/06 18:05:55;;;;;;;5.90;3.08;;;;;;;13.70;nan;101915.75;10360803;28;20513;-82
2023/10/06 18:10:55;;;;;;;6.80;3.20;;;;;;;13.45;nan;101914.47;10363730;28;20398;-81
2023/10/06 18:15:56;;;;;;;8.45;4.10;;;;;;;13.30;nan;101922.44;10359948;28;20077;-84
2023/10/06 18:20:59;;;;;;;12.30;3.63;;;;;;;13.21;nan;101914.06;10358568;28;20500;-84
2023/10/06 18:26:00;;;;;;;10.68;4.15;;;;;;;13.24;nan;101916.88;10360264;28;20405;-85
2023/10/06 18:31:00;;;;;;;10.60;4.47;;;;;;;13.14;nan;101912.81;10359341;28;20048;-84
2023/10/06 18:36:01;;;;;;;14.73;4.78;;;;;;;13.16;nan;101921.69;10390944;28;20527;-84
2023/10/06 18:41:05;;;;;;;11.65;4.00;;;;;;;12.99;nan;101918.16;10391874;28;20125;-81
2023/10/06 18:46:06;;;;;;;13.25;4.18;;;;;;;13.01;nan;101911.28;10375065;28;20042;-81
2023/10/06 18:51:06;;;;;;;13.75;6.38;;;;;;;13.14;nan;101917.19;10359396;28;20038;-81
2023/10/06 18:56:07;;;;;;;11.13;3.90;;;;;;;13.11;nan;101910.03;10364116;28;20124;-81
2023/10/06 19:01:08;;;;;;;11.23;4.10;;;;;;;13.02;nan;101918.34;10392365;28;20399;-80
2023/10/06 19:06:13;;;;;;;8.95;4.85;;;;;;;13.11;nan;101917.91;10348480;28;20499;-81
2023/10/06 19:11:14;;;;;;;10.70;5.82;;;;;;;13.09;nan;101909.03;10390671;28;20099;-83
2023/10/06 19:16:19;;;;;;;16.45;6.03;;;;;;;12.98;nan;101920.69;10377161;28;20057;-83
2023/10/06 19:21:20;;;;;;;15.73;5.60;;;;;;;13.14;nan;101917.19;10336400;28;20398;-83
2023/10/06 19:26:22;;;;;;;11.57;4.50;;;;;;;13.09;nan;101911.66;10360010;28;20137;-82
2023/10/06 19:31:22;;;;;;;11.05;5.38;;;;;;;12.97;nan;101917.19;10317758;28;20956;-83
2023/10/06 19:36:23;;;;;;;10.40;4.78;;;;;;;12.74;nan;101918.53;10335123;28;20129;-84
2023/10/06 19:41:24;;;;;;;14.02;4.80;;;;;;;12.57;nan;101915.84;10333271;28;20145;-83
2023/10/06 19:46:24;;;;;;;12.15;5.00;;;;;;;12.56;nan;101921.94;10324954;28;20136;-83
2023/10/06 19:51:25;;;;;;;9.30;4.63;;;;;;;12.45;nan;101925.66;10349985;28;20066;-83
2023/10/06 19:56:25;;;;;;;17.80;5.03;;;;;;;12.47;nan;101937.16;10375808;28;20037;-84
2023/10/06 20:01:26;;;;;;;10.05;4.97;;;;;;;12.39;nan;101928.84;10365795;28;20409;-83
2023/10/06 20:06:26;;;;;;;18.27;7.03;;;;;;;12.31;nan;101930.16;10370061;28;20128;-83
2023/10/06 20:11:27;;;;;;;20.75;6.30;;;;;;;12.29;nan;101926.53;10379873;28;20048;-83
2023/10/06 20:16:28;;;;;;;8.90;4.93;;;;;;;12.25;nan;101924.53;10396639;28;20133;-82
2023/10/06 20:21:29;;;;;;;10.45;4.95;;;;;;;12.15;nan;101923.09;10365156;28;20038;-83
2023/10/06 20:26:31;;;;;;;21.52;6.43;;;;;;;12.17;nan;101922.38;10344800;28;20048;-82
2023/10/06 20:31:33;;;;;;;14.05;5.13;;;;;;;12.34;nan;101920.72;10379032;28;20236;-83
2023/10/06 20:36:34;;;;;;;9.50;4.88;;;;;;;12.29;nan;101927.41;10396034;28;20048;-83
2023/10/06 20:41:36;;;;;;;18.35;5.47;;;;;;;12.19;nan;101930.31;10362646;28;20478;-82
2023/10/06 20:46:40;;;;;;;10.80;5.43;;;;;;;12.08;nan;101918.28;10363692;28;20124;-83
2023/10/06 20:51:41;;;;;;;10.05;5.10;;;;;;;11.95;nan;101933.28;10362982;28;20164;-82
2023/10/06 20:56:42;;;;;;;12.88;5.22;;;;;;;11.74;nan;101946.94;10361824;28;20156;-83
2023/10/06 21:01:43;;;;;;;17.02;6.50;;;;;;;11.74;nan;101954.78;10346458;28;20042;-83
2023/10/06 21:06:44;;;;;;;14.23;5.78;;;;;;;11.55;nan;101957.13;10364002;28;20133;-83
2023/10/06 21:11:44;;;;;;;10.70;5.10;;;;;;;11.51;nan;101961.28;10361849;28;20116;-83
2023/10/06 21:16:45;;;;;;;11.27;5.00;;;;;;;11.38;nan;101956.97;10377912;28;20112;-83
2023/10/06 21:21:45;;;;;;;10.95;6.18;;;;;;;11.36;nan;101981.31;10362160;28;20030;-83
2023/10/06 21:26:46;;;;;;;12.05;5.20;;;;;;;11.23;nan;101970.06;10362486;28;20129;-82
2023/10/06 21:31:46;;;;;;;11.77;6.43;;;;;;;11.29;nan;101983.53;10360640;28;20076;-83
2023/10/06 21:36:47;;;;;;;9.60;5.10;;;;;;;11.16;nan;101996.69;10362046;28;20461;-83
2023/10/06 21:41:48;;;;;;;10.15;4.80;;;;;;;11.14;nan;101987.81;10362077;28;20405;-83
2023/10/06 21:46:48;;;;;;;12.75;6.57;;;;;;;11.14;nan;101993.06;10394171;28;20087;-84
2023/10/06 21:51:49;;;;;;;11.13;5.65;;;;;;;11.18;nan;101988.91;10360044;28;20120;-83
2023/10/06 21:56:49;;;;;;;12.43;6.30;;;;;;;11.34;nan;101986.44;10344107;28;20494;-83
2023/10/06 22:01:50;;;;;;;14.93;7.13;;;;;;;11.46;nan;101966.22;10359277;28;20041;-84
2023/10/06 22:06:52;;;;;;;10.23;5.57;;;;;;;11.68;nan;101967.53;10361980;28;20512;-84
2023/10/06 22:11:52;;;;;;;8.27;5.07;;;;;;;11.73;nan;101946.84;10359656;28;20042;-83
2023/10/06 22:16:54;;;;;;;22.63;5.65;;;;;;;11.80;nan;101938.53;10387466;28;20121;-83
2023/10/06 22:21:55;;;;;;;11.68;5.35;;;;;;;11.82;nan;101933.38;10360159;28;20052;-82
2023/10/06 22:26:57;;;;;;;9.57;5.85;;;;;;;11.86;nan;101933.66;10342572;28;20045;-83
2023/10/06 22:31:57;;;;;;;15.07;5.38;;;;;;;11.92;nan;101947.94;10358906;28;20068;-84
2023/10/06 22:36:58;;;;;;;12.43;5.88;;;;;;;11.89;nan;101957.44;10358628;28;20096;-82
2023/10/06 22:41:59;;;;;;;12.20;5.28;;;;;;;11.72;nan;101945.94;10359679;28;20389;-82
2023/10/06 22:46:59;;;;;;;22.13;5.30;;;;;;;11.67;nan;101951.72;10358914;28;20042;-82
2023/10/06 22:52:00;;;;;;;11.55;5.78;;;;;;;11.67;nan;101954.34;10342448;28;20033;-82
2023/10/06 22:57:01;;;;;;;10.05;5.70;;;;;;;11.59;nan;101940.75;10357127;28;20141;-83
2023/10/06 23:02:02;;;;;;;10.45;5.45;;;;;;;11.48;nan;101944.44;10360717;28;20074;-83
2023/10/06 23:07:02;;;;;;;10.30;5.53;;;;;;;11.34;nan;101930.50;10342857;28;20034;-83
2023/10/06 23:12:04;;;;;;;10.27;5.35;;;;;;;11.28;nan;101925.78;10342377;28;20069;-82
2023/10/06 23:17:05;;;;;;;9.68;5.40;;;;;;;11.27;nan;101921.34;10341025;28;20039;-82
2023/10/06 23:22:06;;;;;;;8.95;5.05;;;;;;;11.20;nan;101917.47;10342420;28;20037;-81
2023/10/06 23:27:08;;;;;;;9.88;6.80;;;;;;;11.29;nan;101938.06;10358560;28;20044;-82
2023/10/06 23:32:09;;;;;;;14.57;6.93;;;;;;;11.24;nan;101945.66;10378383;28;20473;-82
2023/10/06 23:37:12;;;;;;;9.32;5.75;;;;;;;11.16;nan;101926.81;10373831;28;20038;-82
2023/10/06 23:42:15;;;;;;;9.70;6.38;;;;;;;11.22;nan;101934.19;10376678;28;20070;-82
2023/10/06 23:47:18;;;;;;;12.38;6.85;;;;;;;11.31;nan;101933.81;10349631;28;20125;-83
2023/10/06 23:52:18;;;;;;;10.27;5.03;;;;;;;11.40;nan;101934.38;10398817;28;20038;-82
2023/10/06 23:57:21;;;;;;;7.60;4.80;;;;;;;11.45;nan;101932.97;10363155;28;20560;-83
